Time;durP1;ratioP1;P1;durP2;ratioP2;P2;SDS_P1;SDS_P2;PMS_P1;PMS_P2;Temp;Humidity;BMP_temperature;BMP_pressure;BME280_temperature;BME280_humidity;BME280_pressure;Samples;Min_cycle;Max_cycle;Signal;HPM_P1;HPM_P2
2022/09/07 00:00:48;;;;;;;19.90;14.27;;;;;;;17.24;95.51;101176.88;5032938;28;20025;-61
2022/09/07 00:03:13;;;;;;;19.75;13.48;;;;;;;17.24;96.14;101179.69;5015221;28;20488;-61
2022/09/07 00:05:43;;;;;;;20.40;14.70;;;;;;;17.21;96.08;101195.13;5033364;28;20060;-61
2022/09/07 00:08:09;;;;;;;19.85;13.65;;;;;;;17.17;96.12;101193.38;5032794;28;20053;-61
2022/09/07 00:10:34;;;;;;;20.48;13.98;;;;;;;17.09;97.39;101195.09;5032841;28;20049;-61
2022/09/07 00:13:00;;;;;;;21.85;15.32;;;;;;;17.04;97.43;101204.50;5033024;28;20028;-61
2022/09/07 00:15:25;;;;;;;21.15;14.57;;;;;;;16.91;99.47;101206.38;5032799;28;20220;-60
2022/09/07 00:17:51;;;;;;;22.02;15.50;;;;;;;16.86;99.48;101200.19;5032748;28;20359;-60
2022/09/07 00:20:16;;;;;;;21.52;14.40;;;;;;;16.88;98.94;101189.47;5032734;28;20022;-60
2022/09/07 00:22:41;;;;;;;22.27;14.90;;;;;;;16.89;99.84;101179.94;5033048;28;20021;-59
2022/09/07 00:25:07;;;;;;;22.13;15.32;;;;;;;16.91;99.83;101181.22;5032458;28;20438;-60
2022/09/07 00:27:32;;;;;;;19.95;13.93;;;;;;;16.87;99.13;101169.13;5032291;28;20524;-59
2022/09/07 00:29:58;;;;;;;22.27;13.48;;;;;;;16.84;98.80;101167.81;5032431;28;20022;-61
2022/09/07 00:32:23;;;;;;;21.27;14.40;;;;;;;16.77;98.88;101166.72;5032811;28;20052;-61
2022/09/07 00:34:49;;;;;;;21.77;14.57;;;;;;;16.60;99.65;101167.66;5014258;28;20028;-60
2022/09/07 00:37:15;;;;;;;21.50;13.98;;;;;;;16.59;99.30;101155.69;5032726;28;20025;-60
2022/09/07 00:39:40;;;;;;;21.90;14.23;;;;;;;16.52;99.98;101149.84;5032748;28;20335;-61
2022/09/07 00:42:06;;;;;;;20.30;14.68;;;;;;;16.42;100.00;101156.63;5032468;28;20087;-60
2022/09/07 00:44:57;;;;;;;21.30;14.80;;;;;;;16.36;100.00;101142.03;5031753;28;20092;-61
2022/09/07 00:47:49;;;;;;;20.63;14.38;;;;;;;16.31;100.00;101141.41;5014970;28;20178;-60
2022/09/07 00:50:24;;;;;;;20.45;13.57;;;;;;;16.13;100.00;101116.41;5024150;28;20141;-59
2022/09/07 00:52:55;;;;;;;20.08;13.60;;;;;;;16.14;100.00;101139.56;5032108;28;20083;-60
2022/09/07 00:55:21;;;;;;;21.55;13.60;;;;;;;16.14;100.00;101139.56;5032506;28;20029;-59
2022/09/07 00:57:51;;;;;;;20.30;13.23;;;;;;;16.11;100.00;101146.63;5032084;28;20025;-60
2022/09/07 01:00:17;;;;;;;19.63;12.93;;;;;;;16.21;100.00;101142.63;5031806;28;20125;-60
2022/09/07 01:02:45;;;;;;;21.17;13.18;;;;;;;16.19;100.00;101133.78;5031625;28;20109;-59
2022/09/07 01:05:43;;;;;;;21.55;13.63;;;;;;;16.16;100.00;101123.28;5032238;28;20033;-60
2022/09/07 01:08:10;;;;;;;19.48;13.18;;;;;;;16.19;100.00;101125.41;5030785;28;20048;-61
2022/09/07 01:10:37;;;;;;;21.45;13.98;;;;;;;16.10;100.00;101122.69;5032237;28;20025;-61
2022/09/07 01:13:02;;;;;;;19.00;13.05;;;;;;;16.02;100.00;101115.16;5031941;28;20036;-61
2022/09/07 01:15:40;;;;;;;20.33;12.90;;;;;;;16.02;100.00;101118.78;5031840;28;20037;-60
2022/09/07 01:18:30;;;;;;;19.40;12.98;;;;;;;16.02;100.00;101124.34;5031984;28;20080;-62
2022/09/07 01:21:17;;;;;;;20.02;13.13;;;;;;;15.92;100.00;101107.19;5031680;28;20487;-61
2022/09/07 01:24:01;;;;;;;20.05;12.73;;;;;;;15.87;100.00;101099.84;5031816;28;20029;-61
2022/09/07 01:26:45;;;;;;;;;;;;;;;15.97;99.92;101113.38;5013871;28;20404;-61
2022/09/07 01:29:28;;;;;;;19.25;12.88;;;;;;;15.89;100.00;101117.84;5031377;28;20357;-61
2022/09/07 01:32:11;;;;;;;20.48;14.13;;;;;;;15.88;100.00;101121.81;5032386;28;20029;-62
2022/09/07 01:34:37;;;;;;;20.38;13.00;;;;;;;15.87;100.00;101122.16;5013225;28;20052;-61
2022/09/07 01:37:21;;;;;;;19.27;12.90;;;;;;;15.88;100.00;101127.38;5031080;28;20084;-62
2022/09/07 01:40:03;;;;;;;18.95;12.77;;;;;;;15.86;100.00;101140.84;5031363;28;20393;-61
2022/09/07 01:42:40;;;;;;;19.30;12.95;;;;;;;15.83;100.00;101135.09;5031225;28;20040;-61
2022/09/07 01:45:10;;;;;;;19.15;13.13;;;;;;;15.75;100.00;101126.44;5031937;28;20030;-61
2022/09/07 01:47:44;;;;;;;17.88;11.73;;;;;;;15.77;100.00;101116.91;5031549;28;20029;-61
2022/09/07 01:50:20;;;;;;;19.60;12.43;;;;;;;15.79;100.00;101121.00;5030832;28;20044;-61
2022/09/07 01:52:55;;;;;;;18.25;12.15;;;;;;;15.79;100.00;101115.41;5030789;28;20473;-60
2022/09/07 01:55:35;;;;;;;19.27;12.20;;;;;;;15.78;100.00;101116.56;5031387;28;20026;-61
2022/09/07 01:58:12;;;;;;;18.23;11.98;;;;;;;15.77;100.00;101117.72;5035530;28;20033;-61
2022/09/07 02:00:42;;;;;;;17.48;10.98;;;;;;;15.70;100.00;101109.84;5016844;28;20116;-61
2022/09/07 02:03:14;;;;;;;18.58;12.63;;;;;;;15.69;100.00;101115.78;5034955;28;20029;-61
2022/09/07 02:05:48;;;;;;;18.25;12.45;;;;;;;15.66;100.00;101105.28;5034782;28;20584;-61
2022/09/07 02:08:24;;;;;;;18.60;12.20;;;;;;;15.75;100.00;101117.22;5034823;28;20029;-61
2022/09/07 02:10:59;;;;;;;19.00;12.25;;;;;;;15.75;100.00;101104.13;5035479;28;20056;-60
2022/09/07 02:13:50;;;;;;;18.17;11.02;;;;;;;15.78;100.00;101116.56;5035019;28;20053;-61
2022/09/07 02:16:25;;;;;;;18.25;11.38;;;;;;;15.73;100.00;101122.31;5035244;28;20040;-61
2022/09/07 02:18:55;;;;;;;18.33;11.73;;;;;;;15.78;100.00;101124.09;5025894;28;20046;-61
2022/09/07 02:21:27;;;;;;;18.48;11.65;;;;;;;15.76;100.00;101118.88;5029879;28;20030;-61
2022/09/07 02:24:03;;;;;;;17.67;10.80;;;;;;;15.85;100.00;101118.88;4998185;28;20091;-62
2022/09/07 02:26:29;;;;;;;17.92;11.85;;;;;;;15.96;100.00;101124.88;5020350;28;20067;-60
2022/09/07 02:28:55;;;;;;;18.10;11.30;;;;;;;15.95;100.00;101121.28;5034081;28;20033;-60
2022/09/07 02:31:21;;;;;;;17.45;10.60;;;;;;;15.93;100.00;101118.00;5034276;28;20037;-62
2022/09/07 02:33:47;;;;;;;18.50;11.43;;;;;;;15.85;100.00;101105.72;5034491;28;20040;-62
2022/09/07 02:36:17;;;;;;;18.65;12.23;;;;;;;15.83;100.00;101104.41;5019915;28;20026;-60
2022/09/07 02:38:42;;;;;;;18.40;12.35;;;;;;;15.83;100.00;101112.78;5014985;28;20021;-61
2022/09/07 02:41:26;;;;;;;19.15;12.10;;;;;;;15.85;100.00;101107.72;5014593;28;20419;-61
2022/09/07 02:43:51;;;;;;;;;;;;;;;15.87;100.00;101122.16;5015366;28;20425;-61
2022/09/07 02:46:35;;;;;;;18.03;11.53;;;;;;;15.72;100.00;101117.91;5014471;28;19913;-61
2022/09/07 02:49:13;;;;;;;18.83;11.38;;;;;;;15.70;100.00;101120.22;5012791;28;20026;-62
2022/09/07 02:52:09;;;;;;;18.35;12.15;;;;;;;15.66;100.00;101117.28;4998037;28;20030;-62
2022/09/07 02:55:01;;;;;;;18.50;11.68;;;;;;;15.65;100.00;101112.84;5016688;28;20033;-61
2022/09/07 02:57:54;;;;;;;19.17;12.15;;;;;;;15.64;100.00;101116.78;5034215;28;20082;-61
2022/09/07 03:00:24;;;;;;;18.75;11.98;;;;;;;15.58;100.00;101115.34;5033953;28;20507;-63
2022/09/07 03:03:24;;;;;;;18.08;11.90;;;;;;;15.56;100.00;101112.06;5033986;28;20021;-62
2022/09/07 03:06:03;;;;;;;20.17;13.20;;;;;;;15.45;100.00;101103.22;5034054;28;20022;-62
2022/09/07 03:08:40;;;;;;;20.08;13.10;;;;;;;15.42;100.00;101112.28;5033820;28;20048;-61
2022/09/07 03:11:07;;;;;;;18.55;12.32;;;;;;;15.44;100.00;101118.34;5034107;28;20113;-61
2022/09/07 03:13:32;;;;;;;19.63;12.38;;;;;;;15.40;100.00;101109.81;5033940;28;20040;-60
2022/09/07 03:15:58;;;;;;;20.08;13.20;;;;;;;15.41;100.00;101105.88;5033648;28;20029;-60
2022/09/07 03:18:25;;;;;;;19.45;12.73;;;;;;;15.39;100.00;101099.84;5046620;28;20052;-60
2022/09/07 03:20:50;;;;;;;19.92;12.98;;;;;;;15.35;100.00;101098.84;5053659;28;20044;-60
2022/09/07 03:23:16;;;;;;;19.48;12.82;;;;;;;15.35;100.00;101110.00;5053794;28;20389;-62
2022/09/07 03:25:41;;;;;;;19.52;13.32;;;;;;;15.33;100.00;101103.94;5053472;28;20021;-61
2022/09/07 03:28:06;;;;;;;19.23;12.82;;;;;;;15.33;100.00;101100.34;5034233;28;20048;-62
2022/09/07 03:30:32;;;;;;;21.10;13.65;;;;;;;15.33;100.00;101091.97;5033724;28;20182;-60
2022/09/07 03:32:57;;;;;;;19.85;13.90;;;;;;;15.44;100.00;101105.22;5033463;28;20052;-61
2022/09/07 03:35:22;;;;;;;19.70;14.00;;;;;;;15.43;100.00;101108.34;5033408;28;20033;-62
2022/09/07 03:37:48;;;;;;;21.10;13.32;;;;;;;15.50;100.00;101110.59;5033955;28;20017;-61
2022/09/07 03:40:15;;;;;;;20.73;13.55;;;;;;;15.48;100.00;101112.91;5033494;28;20529;-61
2022/09/07 03:42:40;;;;;;;21.25;14.95;;;;;;;15.47;100.00;101100.13;5033471;28;20350;-61
2022/09/07 03:45:07;;;;;;;20.35;13.77;;;;;;;15.43;100.00;101106.38;5033798;28;20060;-61
2022/09/07 03:47:33;;;;;;;20.25;13.82;;;;;;;15.44;100.00;101105.22;5033477;28;20058;-61
2022/09/07 03:49:59;;;;;;;21.67;14.70;;;;;;;15.49;100.00;101097.84;5033014;28;20477;-61
2022/09/07 03:52:24;;;;;;;21.13;14.73;;;;;;;15.48;100.00;101098.97;5031726;28;20061;-61
2022/09/07 03:54:49;;;;;;;21.17;15.68;;;;;;;15.48;100.00;101101.78;5033142;28;20033;-61
2022/09/07 03:57:15;;;;;;;20.92;15.30;;;;;;;15.51;100.00;101115.84;5033016;28;20078;-61
2022/09/07 03:59:40;;;;;;;21.42;14.70;;;;;;;15.47;100.00;101109.28;5032588;28;20049;-61
2022/09/07 04:02:05;;;;;;;21.42;15.02;;;;;;;15.49;100.00;101106.19;5032609;28;20152;-61
2022/09/07 04:04:31;;;;;;;21.25;15.30;;;;;;;15.48;100.00;101112.91;5033069;28;20049;-62
2022/09/07 04:06:56;;;;;;;21.40;14.65;;;;;;;15.48;100.00;101108.16;5032964;28;20448;-61
2022/09/07 04:09:21;;;;;;;21.95;15.23;;;;;;;15.51;100.00;101095.50;5033033;28;20110;-61
2022/09/07 04:11:47;;;;;;;21.00;14.60;;;;;;;15.52;100.00;101102.72;5032928;28;20087;-60
2022/09/07 04:14:13;;;;;;;21.20;14.55;;;;;;;15.52;100.00;101089.63;5033159;28;20083;-60
2022/09/07 04:16:38;;;;;;;21.67;15.50;;;;;;;15.50;100.00;101093.88;5032673;28;20029;-61
2022/09/07 04:19:04;;;;;;;21.10;14.77;;;;;;;15.48;100.00;101082.25;5032994;28;20513;-62
2022/09/07 04:21:31;;;;;;;21.77;14.88;;;;;;;15.46;100.00;101071.41;5032908;28;20353;-62
2022/09/07 04:23:57;;;;;;;22.67;15.60;;;;;;;15.43;100.00;101070.13;5032523;28;20060;-62
2022/09/07 04:26:26;;;;;;;21.08;14.60;;;;;;;15.44;100.00;101066.19;5032016;28;20307;-61
2022/09/07 04:28:51;;;;;;;21.23;15.30;;;;;;;15.45;100.00;101066.97;5032772;28;20025;-62
2022/09/07 04:31:18;;;;;;;22.00;15.10;;;;;;;15.49;100.00;101067.97;5032603;28;20036;-62
2022/09/07 04:33:45;;;;;;;22.42;15.57;;;;;;;15.48;100.00;101071.91;5032113;28;20371;-62
2022/09/07 04:36:11;;;;;;;21.55;15.32;;;;;;;15.53;100.00;101074.53;5032237;28;20017;-62
2022/09/07 04:38:38;;;;;;;21.92;15.30;;;;;;;15.56;100.00;101073.03;5032312;28;20033;-62
2022/09/07 04:41:08;;;;;;;21.73;15.32;;;;;;;15.52;100.00;101070.09;5032267;28;20036;-62
2022/09/07 04:43:33;;;;;;;23.15;15.80;;;;;;;15.52;100.00;101072.88;5031803;28;20045;-61
2022/09/07 04:46:04;;;;;;;24.88;15.18;;;;;;;15.48;100.00;101077.47;5031842;28;20043;-61
2022/09/07 04:48:29;;;;;;;22.45;15.85;;;;;;;15.43;100.00;101081.28;5032448;28;20064;-62
2022/09/07 04:50:54;;;;;;;22.15;15.40;;;;;;;15.42;100.00;101082.41;5032256;28;20430;-62
2022/09/07 04:53:19;;;;;;;21.88;15.40;;;;;;;15.46;100.00;101085.34;5032334;28;20103;-61
2022/09/07 04:55:45;;;;;;;22.25;16.33;;;;;;;15.40;100.00;101086.69;5032150;28;20507;-62
2022/09/07 04:58:10;;;;;;;23.55;16.63;;;;;;;15.39;100.00;101085.06;5031915;28;20429;-62
2022/09/07 05:00:38;;;;;;;22.50;16.30;;;;;;;15.39;100.00;101088.69;5031946;28;20036;-63
2022/09/07 05:03:04;;;;;;;22.67;16.63;;;;;;;15.32;100.00;101091.13;5031755;28;20089;-62
2022/09/07 05:05:29;;;;;;;26.60;17.48;;;;;;;15.32;100.00;101093.13;5031991;28;20056;-62
2022/09/07 05:07:55;;;;;;;23.77;16.23;;;;;;;15.30;100.00;101085.09;5031814;28;20563;-63
2022/09/07 05:10:20;;;;;;;23.35;17.00;;;;;;;15.27;100.00;101082.97;5032465;28;20491;-62
2022/09/07 05:12:46;;;;;;;23.02;16.23;;;;;;;15.26;100.00;101084.13;5031777;28;20025;-61
2022/09/07 05:15:11;;;;;;;24.40;16.48;;;;;;;15.24;100.00;101087.25;5032257;28;20032;-62
2022/09/07 05:17:36;;;;;;;24.23;17.73;;;;;;;15.25;100.00;101083.31;5014152;28;20076;-61
2022/09/07 05:20:02;;;;;;;23.35;17.70;;;;;;;15.31;100.00;101095.06;5031764;28;20057;-62
2022/09/07 05:22:28;;;;;;;25.48;17.40;;;;;;;15.37;100.00;101092.94;5031440;28;20057;-61
2022/09/07 05:24:53;;;;;;;23.35;17.17;;;;;;;15.41;100.00;101093.91;5031592;28;20163;-61
2022/09/07 05:27:18;;;;;;;22.63;16.98;;;;;;;15.40;100.00;101079.13;5031474;28;20121;-61
2022/09/07 05:29:43;;;;;;;22.83;16.15;;;;;;;15.47;100.00;101092.56;5031517;28;20440;-61
2022/09/07 05:32:09;;;;;;;23.27;16.88;;;;;;;15.52;100.00;101097.97;5031628;28;20040;-61
2022/09/07 05:34:34;;;;;;;23.08;16.70;;;;;;;15.57;100.00;101106.16;5031934;28;20063;-62
2022/09/07 05:37:00;;;;;;;25.65;17.20;;;;;;;15.62;100.00;101104.34;5032077;28;20059;-61
2022/09/07 05:39:25;;;;;;;22.77;16.98;;;;;;;15.67;100.00;101098.56;5032093;28;20045;-61
2022/09/07 05:41:51;;;;;;;23.95;16.20;;;;;;;15.73;100.00;101091.63;5031529;28;20021;-61
2022/09/07 05:44:16;;;;;;;22.23;16.50;;;;;;;15.73;100.00;101092.47;5031052;28;20037;-61
2022/09/07 05:46:41;;;;;;;24.67;18.05;;;;;;;15.76;100.00;101096.56;5013943;28;20525;-62
2022/09/07 05:49:07;;;;;;;23.85;16.90;;;;;;;15.80;100.00;101096.69;5031964;28;20079;-62
2022/09/07 05:51:32;;;;;;;23.10;17.08;;;;;;;15.84;100.00;101095.72;5031237;28;20025;-62
2022/09/07 05:53:58;;;;;;;24.25;17.23;;;;;;;15.84;100.00;101098.50;5031570;28;20030;-61
2022/09/07 05:56:24;;;;;;;24.95;17.83;;;;;;;15.88;100.00;101101.44;5031197;28;20188;-63
2022/09/07 05:58:50;;;;;;;24.48;16.80;;;;;;;15.90;100.00;101104.72;5031538;28;20087;-62
2022/09/07 06:01:15;;;;;;;22.55;16.60;;;;;;;15.94;100.00;101099.28;5031057;28;20482;-61
2022/09/07 06:03:42;;;;;;;24.42;17.52;;;;;;;15.98;100.00;101103.03;5031329;28;20033;-61
2022/09/07 06:06:13;;;;;;;24.92;18.23;;;;;;;15.99;100.00;101104.69;5031723;28;20033;-62
2022/09/07 06:08:42;;;;;;;24.58;17.13;;;;;;;16.02;100.00;101104.81;5013319;28;20028;-62
2022/09/07 06:11:11;;;;;;;25.02;18.33;;;;;;;16.03;100.00;101106.47;5031477;28;20116;-62
2022/09/07 06:13:37;;;;;;;25.20;18.63;;;;;;;16.05;100.00;101104.16;5013057;28;20103;-60
2022/09/07 06:16:04;;;;;;;25.15;18.35;;;;;;;16.02;100.00;101101.19;5031399;28;20438;-60
2022/09/07 06:18:32;;;;;;;25.75;19.13;;;;;;;15.89;100.00;101095.53;5030649;28;20124;-62
2022/09/07 06:21:17;;;;;;;27.52;20.02;;;;;;;16.01;100.00;101114.34;5030596;28;20116;-61
2022/09/07 06:23:43;;;;;;;27.70;21.17;;;;;;;15.93;100.00;101118.00;5013831;28;20469;-60
2022/09/07 06:26:10;;;;;;;27.50;19.58;;;;;;;15.88;100.00;101118.19;5032646;28;20025;-60
2022/09/07 06:28:38;;;;;;;26.20;20.55;;;;;;;15.87;100.00;101133.31;5059680;28;20388;-60
2022/09/07 06:31:11;;;;;;;28.58;21.20;;;;;;;15.86;100.00;101123.28;5042713;28;20023;-60
2022/09/07 06:33:37;;;;;;;29.88;22.77;;;;;;;15.86;100.00;101126.88;5069617;28;20037;-60
2022/09/07 06:36:10;;;;;;;28.33;22.88;;;;;;;15.88;100.00;101132.13;5069414;28;20360;-60
2022/09/07 06:38:36;;;;;;;30.27;24.08;;;;;;;15.90;100.00;101127.03;5069339;28;20369;-61
2022/09/07 06:41:02;;;;;;;31.20;24.48;;;;;;;15.96;100.00;101131.28;5069237;28;20052;-60
2022/09/07 06:43:27;;;;;;;30.08;24.90;;;;;;;16.04;100.00;101124.84;5072082;28;20137;-60
2022/09/07 06:45:53;;;;;;;30.70;23.85;;;;;;;16.13;100.00;101127.56;5073491;28;20032;-61
2022/09/07 06:48:19;;;;;;;31.08;24.58;;;;;;;16.23;100.00;101131.97;5073285;28;20024;-61
2022/09/07 06:50:54;;;;;;;31.48;24.10;;;;;;;16.30;100.00;101132.22;5073006;28;20376;-60
2022/09/07 06:53:19;;;;;;;32.95;25.17;;;;;;;16.37;100.00;101137.28;5072799;28;20315;-61
2022/09/07 06:55:44;;;;;;;33.28;25.38;;;;;;;16.45;100.00;101133.63;5072878;28;20028;-60
2022/09/07 06:58:10;;;;;;;32.35;25.13;;;;;;;16.50;100.00;101140.97;5072790;28;20557;-61
2022/09/07 07:00:35;;;;;;;32.10;25.27;;;;;;;16.52;100.00;101131.09;5071296;28;20046;-61
2022/09/07 07:03:01;;;;;;;31.80;25.42;;;;;;;16.58;100.00;101137.28;5072708;28;20111;-61
2022/09/07 07:05:26;;;;;;;33.42;25.98;;;;;;;16.61;100.00;101139.41;5072853;28;20025;-62
2022/09/07 07:07:51;;;;;;;33.92;25.85;;;;;;;16.58;100.00;101131.72;5072663;28;20024;-62
2022/09/07 07:10:16;;;;;;;32.63;25.63;;;;;;;16.61;100.00;101161.75;5072712;28;20109;-61
2022/09/07 07:12:42;;;;;;;33.90;27.13;;;;;;;16.56;100.00;101147.97;5054470;28;20380;-60
2022/09/07 07:15:07;;;;;;;33.95;27.33;;;;;;;16.51;100.00;101151.00;5072645;28;20086;-61
2022/09/07 07:17:33;;;;;;;37.28;27.77;;;;;;;16.47;100.00;101133.25;5072575;28;20041;-61
2022/09/07 07:19:58;;;;;;;35.88;27.67;;;;;;;16.51;100.00;101137.03;5053662;28;20460;-61
2022/09/07 07:22:23;;;;;;;38.10;30.65;;;;;;;16.57;100.00;101135.66;5071853;28;20024;-62
2022/09/07 07:24:49;;;;;;;37.97;30.48;;;;;;;16.60;100.00;101139.72;5071702;28;20024;-61
2022/09/07 07:27:16;;;;;;;36.47;29.50;;;;;;;16.67;100.00;101135.25;5071690;28;20053;-61
2022/09/07 07:29:42;;;;;;;39.55;31.38;;;;;;;16.75;100.00;101139.13;5071501;28;20043;-62
2022/09/07 07:32:07;;;;;;;40.08;31.13;;;;;;;16.88;100.00;101133.59;5071789;28;20020;-59
2022/09/07 07:37:36;;;;;;;41.65;32.00;;;;;;;17.13;100.00;101148.53;5071454;28;20117;-60
2022/09/07 07:40:06;;;;;;;45.65;34.55;;;;;;;17.25;100.00;101148.56;5071472;28;20124;-61
2022/09/07 07:42:32;;;;;;;42.30;32.35;;;;;;;17.46;100.00;101153.28;5071332;28;20027;-60
2022/09/07 07:44:58;;;;;;;40.83;32.40;;;;;;;17.60;100.00;101162.16;5071150;28;20032;-61
2022/09/07 07:47:24;;;;;;;42.08;32.60;;;;;;;17.72;100.00;101149.38;5071540;28;20499;-60
2022/09/07 07:49:49;;;;;;;40.90;32.95;;;;;;;17.81;100.00;101155.69;5071251;28;20020;-61
2022/09/07 07:52:15;;;;;;;41.88;32.22;;;;;;;17.89;100.00;101154.75;5071239;28;20028;-61
2022/09/07 07:54:41;;;;;;;37.63;31.35;;;;;;;17.96;99.93;101153.34;5070870;28;20028;-60
2022/09/07 07:57:07;;;;;;;38.17;30.52;;;;;;;17.99;99.11;101161.06;5071082;28;20545;-61
2022/09/07 07:59:33;;;;;;;38.53;31.23;;;;;;;18.08;99.60;101158.97;5069204;28;20024;-61
2022/09/07 08:02:03;;;;;;;38.30;31.23;;;;;;;18.19;99.50;101165.75;5070730;28;20117;-61
2022/09/07 08:04:32;;;;;;;36.80;31.02;;;;;;;18.23;97.37;101158.25;5071072;28;20029;-61
2022/09/07 08:06:57;;;;;;;37.13;30.20;;;;;;;18.28;97.13;101160.00;5070826;28;20499;-61
2022/09/07 08:09:22;;;;;;;36.58;29.23;;;;;;;18.31;95.87;101164.91;5070921;28;20028;-61
2022/09/07 08:11:48;;;;;;;34.58;29.20;;;;;;;18.30;95.71;101166.09;5070800;28;20146;-60
2022/09/07 08:14:13;;;;;;;33.35;29.27;;;;;;;18.30;95.60;101176.47;5070664;28;20028;-59
2022/09/07 08:16:41;;;;;;;34.58;28.90;;;;;;;18.36;95.96;101180.66;5070815;28;20034;-60
2022/09/07 08:19:07;;;;;;;37.88;29.75;;;;;;;18.37;96.03;101173.91;5070567;28;20040;-61
2022/09/07 08:21:32;;;;;;;37.30;28.92;;;;;;;18.46;95.82;101168.19;5071038;28;20086;-61
2022/09/07 08:23:58;;;;;;;34.58;29.30;;;;;;;18.57;96.19;101174.09;5070668;28;20046;-60
2022/09/07 08:26:23;;;;;;;34.97;27.90;;;;;;;18.62;93.37;101185.06;5070644;28;20029;-62
2022/09/07 08:28:49;;;;;;;35.10;27.63;;;;;;;18.64;92.97;101180.75;5070433;28;20081;-61
2022/09/07 08:31:15;;;;;;;35.25;25.80;;;;;;;18.72;93.54;101184.56;5070499;28;20036;-60
2022/09/07 08:33:41;;;;;;;32.63;25.50;;;;;;;18.77;92.82;101184.34;5070350;28;20488;-60
2022/09/07 08:36:10;;;;;;;30.25;24.80;;;;;;;18.76;91.07;101177.09;5070371;28;20055;-61
2022/09/07 08:38:36;;;;;;;30.20;25.33;;;;;;;18.86;91.22;101190.63;5070436;28;20039;-60
2022/09/07 08:41:43;;;;;;;32.53;24.85;;;;;;;18.93;92.04;101181.66;5070277;28;20029;-61
2022/09/07 08:44:23;;;;;;;29.55;24.15;;;;;;;18.91;89.73;101183.94;5070392;28;20058;-61
2022/09/07 08:46:55;;;;;;;31.08;25.45;;;;;;;18.93;89.01;101189.22;5070243;28;20046;-59
2022/09/07 08:49:45;;;;;;;29.40;23.73;;;;;;;19.05;89.64;101193.97;5070253;28;20076;-61
2022/09/07 08:52:19;;;;;;;30.17;23.50;;;;;;;19.16;89.80;101195.09;5070100;28;20064;-61
2022/09/07 08:54:52;;;;;;;29.20;23.45;;;;;;;19.18;88.29;101187.16;5070336;28;20033;-61
2022/09/07 08:57:25;;;;;;;28.45;23.77;;;;;;;19.27;87.93;101189.81;5070085;28;20047;-60
2022/09/07 09:00:10;;;;;;;30.42;24.13;;;;;;;19.40;87.86;101190.56;5068216;28;20021;-62
2022/09/07 09:02:35;;;;;;;28.75;23.05;;;;;;;19.51;88.33;101196.47;5070109;28;20170;-61
2022/09/07 09:05:03;;;;;;;28.77;23.83;;;;;;;19.58;87.20;101191.03;5069378;28;20532;-61
2022/09/07 09:07:41;;;;;;;29.45;23.08;;;;;;;19.67;86.62;101196.47;5070042;28;20166;-61
2022/09/07 09:10:16;;;;;;;28.90;23.58;;;;;;;19.63;85.04;101199.19;5070216;28;20036;-61
2022/09/07 09:13:29;;;;;;;29.15;23.20;;;;;;;19.69;85.49;101197.75;5070130;28;20101;-61
2022/09/07 09:16:03;;;;;;;28.23;21.83;;;;;;;19.82;86.20;101195.69;5007894;28;20211;-61
2022/09/07 09:18:58;;;;;;;27.70;22.08;;;;;;;19.85;85.15;101189.38;5021332;28;20120;-61
2022/09/07 09:21:25;;;;;;;29.05;22.60;;;;;;;19.94;83.61;101189.19;5043409;28;20532;-62
2022/09/07 09:23:53;;;;;;;28.23;21.83;;;;;;;19.87;83.47;101183.38;5049961;28;20066;-62
2022/09/07 09:26:23;;;;;;;26.98;20.40;;;;;;;19.88;82.93;101179.41;5049688;28;20049;-61
2022/09/07 09:28:48;;;;;;;26.92;21.42;;;;;;;20.06;82.96;101191.91;5049597;28;20043;-61
2022/09/07 09:31:26;;;;;;;27.33;21.33;;;;;;;20.18;82.53;101199.41;5049516;28;20107;-60
2022/09/07 09:34:19;;;;;;;26.88;20.02;;;;;;;20.29;82.06;101193.25;5049552;28;20037;-61
2022/09/07 09:36:49;;;;;;;25.88;19.60;;;;;;;20.27;79.97;101191.59;5046797;28;20041;-61
2022/09/07 09:39:35;;;;;;;25.27;19.67;;;;;;;20.31;80.68;101199.31;5031435;28;20071;-61
2022/09/07 09:42:14;;;;;;;25.92;19.60;;;;;;;20.38;80.16;101193.84;5049472;28;20032;-61
2022/09/07 09:44:42;;;;;;;24.65;18.02;;;;;;;20.52;80.01;101190.56;5049503;28;20025;-60
2022/09/07 09:47:28;;;;;;;24.63;18.13;;;;;;;20.76;80.51;101195.16;5049168;28;20025;-60
2022/09/07 09:49:54;;;;;;;25.55;19.40;;;;;;;20.86;78.23;101188.94;5049449;28;20106;-60
2022/09/07 09:52:22;;;;;;;24.90;18.42;;;;;;;20.87;76.68;101196.22;5049317;28;20029;-60
2022/09/07 09:54:52;;;;;;;25.17;18.67;;;;;;;20.83;75.66;101177.63;5049590;28;20036;-60
2022/09/07 09:57:49;;;;;;;23.63;17.33;;;;;;;21.03;77.31;101193.34;5049449;28;20021;-61
2022/09/07 10:00:17;;;;;;;25.50;17.48;;;;;;;21.24;73.57;101185.69;5047939;28;20041;-60
2022/09/07 10:02:58;;;;;;;24.05;17.98;;;;;;;21.39;74.33;101183.97;5049300;28;20028;-60
2022/09/07 10:05:37;;;;;;;22.55;16.73;;;;;;;21.45;72.69;101176.84;5049451;28;20025;-60
2022/09/07 10:08:15;;;;;;;23.70;17.17;;;;;;;21.43;71.80;101170.78;5031344;28;20063;-60
2022/09/07 10:11:14;;;;;;;21.58;16.30;;;;;;;21.57;72.43;101178.69;5031305;28;20025;-60
2022/09/07 10:13:52;;;;;;;22.10;15.52;;;;;;;21.53;71.00;101187.06;5037758;28;20053;-60
2022/09/07 10:16:17;;;;;;;22.35;15.55;;;;;;;21.55;71.64;101179.03;5049559;28;20033;-61
2022/09/07 10:18:54;;;;;;;22.20;15.02;;;;;;;21.56;71.31;101175.03;5068420;28;20106;-61
2022/09/07 10:21:30;;;;;;;23.13;16.42;;;;;;;21.58;70.97;101180.31;5072788;28;20048;-61
2022/09/07 10:24:04;;;;;;;22.55;16.00;;;;;;;21.61;71.04;101183.22;5072992;28;20047;-62
2022/09/07 10:26:40;;;;;;;22.55;15.70;;;;;;;21.54;71.55;101168.97;5072727;28;20059;-62
2022/09/07 10:29:15;;;;;;;23.70;15.07;;;;;;;21.73;71.34;101172.94;5072825;28;20043;-61
2022/09/07 10:31:54;;;;;;;21.95;15.70;;;;;;;21.92;70.46;101175.69;5072436;28;20036;-61
2022/09/07 10:34:33;;;;;;;21.75;14.68;;;;;;;22.05;68.94;101175.50;5054431;28;20484;-61
2022/09/07 10:37:09;;;;;;;21.05;14.48;;;;;;;22.11;69.11;101166.38;5072353;28;20092;-61
2022/09/07 10:39:42;;;;;;;20.20;14.82;;;;;;;22.22;66.46;101169.34;5072562;28;20068;-62
2022/09/07 10:42:07;;;;;;;22.20;13.65;;;;;;;22.23;66.37;101170.97;5072335;28;20604;-60
2022/09/07 10:45:03;;;;;;;22.60;14.00;;;;;;;22.14;68.19;101161.97;5072629;28;20115;-61
2022/09/07 10:47:47;;;;;;;20.20;11.88;;;;;;;22.21;66.21;101164.91;5072386;28;20118;-60
2022/09/07 10:50:32;;;;;;;20.65;12.60;;;;;;;22.19;65.29;101164.50;5072391;28;20105;-60
2022/09/07 10:53:35;;;;;;;22.30;12.02;;;;;;;22.34;64.51;101159.06;5054519;28;20113;-61
2022/09/07 10:56:04;;;;;;;19.27;11.55;;;;;;;22.19;64.55;101160.84;5072487;28;20502;-58
2022/09/07 10:58:53;;;;;;;19.63;11.48;;;;;;;22.20;65.06;101152.00;5072224;28;20448;-61
2022/09/07 11:01:46;;;;;;;21.65;10.82;;;;;;;22.11;65.52;101149.47;5072311;28;20036;-61
2022/09/07 11:04:29;;;;;;;19.35;10.98;;;;;;;22.14;64.00;101147.88;5072084;28;20040;-61
2022/09/07 11:07:04;;;;;;;19.98;10.55;;;;;;;22.35;63.52;101138.13;5071948;28;20082;-59
2022/09/07 11:09:52;;;;;;;21.25;11.13;;;;;;;22.67;63.14;101149.09;5072238;28;20029;-60
2022/09/07 11:12:23;;;;;;;19.67;10.88;;;;;;;22.81;60.75;101149.25;5071965;28;20032;-61
2022/09/07 11:14:54;;;;;;;18.42;9.80;;;;;;;22.91;60.83;101147.75;5071958;28;20071;-61
2022/09/07 11:17:24;;;;;;;18.92;10.63;;;;;;;22.76;61.53;101152.44;5071934;28;20048;-60
2022/09/07 11:19:59;;;;;;;17.33;9.75;;;;;;;22.58;61.12;101140.91;5071928;28;20063;-61
2022/09/07 11:22:28;;;;;;;17.90;10.77;;;;;;;22.82;61.87;101148.06;5072577;28;20024;-60
2022/09/07 11:25:22;;;;;;;18.55;9.90;;;;;;;23.20;60.89;101137.66;5071797;28;20495;-61